sensor_id;sensor_type;location;lat;lon;timestamp;pressure;altitude;pressure_sealevel;temperature;humidity
59272;BME280;45043;51.068;7.026;2024-03-08T00:02:29;100580.25;;;6.09;44.59
59272;BME280;45043;51.068;7.026;2024-03-08T00:05:30;100584.53;;;6.10;44.40
59272;BME280;45043;51.068;7.026;2024-03-08T00:08:32;100582.44;;;6.03;44.64
59272;BME280;45043;51.068;7.026;2024-03-08T00:11:36;100577.91;;;5.96;45.09
59272;BME280;45043;51.068;7.026;2024-03-08T00:14:37;100579.13;;;5.92;44.92
59272;BME280;45043;51.068;7.026;2024-03-08T00:17:38;100576.38;;;5.84;45.16
59272;BME280;45043;51.068;7.026;2024-03-08T00:20:39;100570.44;;;5.82;44.87
59272;BME280;45043;51.068;7.026;2024-03-08T00:23:39;100571.41;;;5.81;44.77
59272;BME280;45043;51.068;7.026;2024-03-08T00:26:40;100569.88;;;5.78;45.12
59272;BME280;45043;51.068;7.026;2024-03-08T00:29:42;100578.03;;;5.85;44.92
59272;BME280;45043;51.068;7.026;2024-03-08T00:32:43;100572.53;;;5.88;45.00
59272;BME280;45043;51.068;7.026;2024-03-08T00:35:43;100562.88;;;5.88;44.71
59272;BME280;45043;51.068;7.026;2024-03-08T00:38:44;100560.66;;;5.93;44.61
59272;BME280;45043;51.068;7.026;2024-03-08T00:41:45;100553.50;;;5.95;44.65
59272;BME280;45043;51.068;7.026;2024-03-08T00:44:46;100546.59;;;5.94;44.46
59272;BME280;45043;51.068;7.026;2024-03-08T00:47:48;100543.28;;;5.92;44.53
59272;BME280;45043;51.068;7.026;2024-03-08T00:50:49;100542.06;;;5.87;44.52
59272;BME280;45043;51.068;7.026;2024-03-08T00:53:49;100533.66;;;5.83;44.54
59272;BME280;45043;51.068;7.026;2024-03-08T00:56:50;100539.44;;;5.77;44.89
59272;BME280;45043;51.068;7.026;2024-03-08T00:59:51;100534.47;;;5.74;44.51
59272;BME280;45043;51.068;7.026;2024-03-08T01:02:53;100533.22;;;5.68;44.93
59272;BME280;45043;51.068;7.026;2024-03-08T01:05:53;100530.72;;;5.67;44.99
59272;BME280;45043;51.068;7.026;2024-03-08T01:08:54;100527.56;;;5.53;44.87
59272;BME280;45043;51.068;7.026;2024-03-08T01:11:55;100526.75;;;5.53;45.22
59272;BME280;45043;51.068;7.026;2024-03-08T01:14:56;100516.38;;;5.51;45.35
59272;BME280;45043;51.068;7.026;2024-03-08T01:17:59;100504.13;;;5.52;45.40
59272;BME280;45043;51.068;7.026;2024-03-08T01:21:01;100508.13;;;5.46;45.75
59272;BME280;45043;51.068;7.026;2024-03-08T01:24:02;100504.13;;;5.42;45.53
59272;BME280;45043;51.068;7.026;2024-03-08T01:27:04;100501.38;;;5.34;45.82
59272;BME280;45043;51.068;7.026;2024-03-08T01:30:05;100495.84;;;5.37;46.04
59272;BME280;45043;51.068;7.026;2024-03-08T01:33:06;100495.56;;;5.40;45.36
59272;BME280;45043;51.068;7.026;2024-03-08T01:36:07;100481.09;;;5.36;46.04
59272;BME280;45043;51.068;7.026;2024-03-08T01:39:07;100480.13;;;5.37;45.93
59272;BME280;45043;51.068;7.026;2024-03-08T01:42:09;100480.44;;;5.34;46.06
59272;BME280;45043;51.068;7.026;2024-03-08T01:45:13;100480.69;;;5.31;46.25
59272;BME280;45043;51.068;7.026;2024-03-08T01:48:17;100476.28;;;5.32;46.06
59272;BME280;45043;51.068;7.026;2024-03-08T01:51:18;100480.69;;;5.31;45.80
59272;BME280;45043;51.068;7.026;2024-03-08T01:54:19;100479.72;;;5.32;45.93
59272;BME280;45043;51.068;7.026;2024-03-08T01:57:21;100469.97;;;5.34;46.12
59272;BME280;45043;51.068;7.026;2024-03-08T02:00:23;100464.72;;;5.34;46.41
59272;BME280;45043;51.068;7.026;2024-03-08T02:03:25;100464.19;;;5.30;45.98
59272;BME280;45043;51.068;7.026;2024-03-08T02:06:26;100446.94;;;5.28;46.22
59272;BME280;45043;51.068;7.026;2024-03-08T02:09:27;100448.59;;;5.29;46.29
59272;BME280;45043;51.068;7.026;2024-03-08T02:12:28;100444.31;;;5.28;46.24
59272;BME280;45043;51.068;7.026;2024-03-08T02:18:55;100436.03;;;5.23;46.33
59272;BME280;45043;51.068;7.026;2024-03-08T02:21:57;100441.97;;;5.15;46.58
59272;BME280;45043;51.068;7.026;2024-03-08T02:25:00;100437.13;;;5.11;46.38
59272;BME280;45043;51.068;7.026;2024-03-08T02:28:10;100432.16;;;5.07;46.76
59272;BME280;45043;51.068;7.026;2024-03-08T02:31:11;100430.66;;;5.05;46.75
59272;BME280;45043;51.068;7.026;2024-03-08T02:34:12;100423.22;;;5.00;46.84
59272;BME280;45043;51.068;7.026;2024-03-08T02:37:15;100421.16;;;4.94;46.93
59272;BME280;45043;51.068;7.026;2024-03-08T02:40:16;100423.88;;;4.93;46.87
59272;BME280;45043;51.068;7.026;2024-03-08T02:43:18;100419.22;;;4.96;46.58
59272;BME280;45043;51.068;7.026;2024-03-08T02:46:20;100415.91;;;4.94;46.88
59272;BME280;45043;51.068;7.026;2024-03-08T02:49:21;100418.78;;;4.91;46.75
59272;BME280;45043;51.068;7.026;2024-03-08T02:52:23;100412.72;;;4.91;47.04
59272;BME280;45043;51.068;7.026;2024-03-08T02:55:24;100419.50;;;4.93;46.68
59272;BME280;45043;51.068;7.026;2024-03-08T02:58:26;100404.63;;;4.94;46.62
59272;BME280;45043;51.068;7.026;2024-03-08T03:01:27;100410.81;;;4.93;46.80
59272;BME280;45043;51.068;7.026;2024-03-08T03:04:28;100396.66;;;4.95;46.74
59272;BME280;45043;51.068;7.026;2024-03-08T03:07:29;100404.50;;;4.95;46.91
59272;BME280;45043;51.068;7.026;2024-03-08T03:10:30;100402.03;;;4.94;46.36
59272;BME280;45043;51.068;7.026;2024-03-08T03:13:31;100395.97;;;4.93;46.87
59272;BME280;45043;51.068;7.026;2024-03-08T03:16:32;100382.16;;;4.91;46.88
59272;BME280;45043;51.068;7.026;2024-03-08T03:19:33;100379.53;;;4.91;46.70
59272;BME280;45043;51.068;7.026;2024-03-08T03:22:39;100379.31;;;4.94;46.48
59272;BME280;45043;51.068;7.026;2024-03-08T03:25:41;100378.59;;;4.92;46.66
59272;BME280;45043;51.068;7.026;2024-03-08T03:28:42;100385.50;;;4.93;46.88
59272;BME280;45043;51.068;7.026;2024-03-08T03:31:43;100378.84;;;4.89;46.84
59272;BME280;45043;51.068;7.026;2024-03-08T03:34:47;100378.84;;;4.89;46.66
59272;BME280;45043;51.068;7.026;2024-03-08T03:37:48;100376.63;;;4.85;46.59
59272;BME280;45043;51.068;7.026;2024-03-08T03:41:07;100375.09;;;4.82;47.20
59272;BME280;45043;51.068;7.026;2024-03-08T03:44:10;100376.53;;;4.86;46.76
59272;BME280;45043;51.068;7.026;2024-03-08T03:47:11;100375.25;;;4.80;46.65
59272;BME280;45043;51.068;7.026;2024-03-08T03:50:12;100378.69;;;4.81;47.22
59272;BME280;45043;51.068;7.026;2024-03-08T03:53:13;100364.25;;;4.77;47.03
59272;BME280;45043;51.068;7.026;2024-03-08T03:56:14;100382.00;;;4.83;47.09
59272;BME280;45043;51.068;7.026;2024-03-08T03:59:15;100364.13;;;4.78;46.57
59272;BME280;45043;51.068;7.026;2024-03-08T04:02:17;100370.16;;;4.79;47.31
59272;BME280;45043;51.068;7.026;2024-03-08T04:05:20;100374.03;;;4.75;46.92
59272;BME280;45043;51.068;7.026;2024-03-08T04:08:22;100370.69;;;4.73;47.06
59272;BME280;45043;51.068;7.026;2024-03-08T04:11:24;100362.84;;;4.73;47.45
59272;BME280;45043;51.068;7.026;2024-03-08T04:14:24;100363.13;;;4.70;47.15
59272;BME280;45043;51.068;7.026;2024-03-08T04:17:25;100353.91;;;4.66;47.51
59272;BME280;45043;51.068;7.026;2024-03-08T04:20:26;100346.88;;;4.66;47.23
59272;BME280;45043;51.068;7.026;2024-03-08T04:23:27;100357.47;;;4.65;47.28
59272;BME280;45043;51.068;7.026;2024-03-08T04:26:29;100355.84;;;4.64;47.62
59272;BME280;45043;51.068;7.026;2024-03-08T04:29:30;100352.78;;;4.58;47.18
59272;BME280;45043;51.068;7.026;2024-03-08T04:32:31;100352.53;;;4.62;47.39
59272;BME280;45043;51.068;7.026;2024-03-08T04:35:32;100347.69;;;4.67;47.69
59272;BME280;45043;51.068;7.026;2024-03-08T04:38:33;100342.78;;;4.64;47.63
59272;BME280;45043;51.068;7.026;2024-03-08T04:41:34;100339.03;;;4.56;47.63
59272;BME280;45043;51.068;7.026;2024-03-08T04:44:39;100347.69;;;4.57;47.76
59272;BME280;45043;51.068;7.026;2024-03-08T04:47:39;100330.34;;;4.56;47.48
59272;BME280;45043;51.068;7.026;2024-03-08T04:50:41;100332.03;;;4.57;48.07
59272;BME280;45043;51.068;7.026;2024-03-08T04:53:42;100334.19;;;4.52;47.75
59272;BME280;45043;51.068;7.026;2024-03-08T04:56:42;100332.13;;;4.55;48.06
59272;BME280;45043;51.068;7.026;2024-03-08T04:59:43;100322.78;;;4.53;48.10
59272;BME280;45043;51.068;7.026;2024-03-08T05:02:44;100326.09;;;4.55;47.74
59272;BME280;45043;51.068;7.026;2024-03-08T05:05:45;100321.00;;;4.53;47.98
59272;BME280;45043;51.068;7.026;2024-03-08T05:08:45;100319.34;;;4.52;47.92
59272;BME280;45043;51.068;7.026;2024-03-08T05:11:48;100312.19;;;4.54;47.98
59272;BME280;45043;51.068;7.026;2024-03-08T05:14:49;100313.44;;;4.50;47.92
59272;BME280;45043;51.068;7.026;2024-03-08T05:17:50;100311.38;;;4.54;48.15
59272;BME280;45043;51.068;7.026;2024-03-08T05:20:50;100309.16;;;4.49;48.40
59272;BME280;45043;51.068;7.026;2024-03-08T05:23:52;100295.84;;;4.62;49.40
59272;BME280;45043;51.068;7.026;2024-03-08T05:26:52;100303.16;;;5.17;49.96
59272;BME280;45043;51.068;7.026;2024-03-08T05:29:53;100293.03;;;5.61;49.58
59272;BME280;45043;51.068;7.026;2024-03-08T05:32:53;100296.53;;;5.79;49.34
59272;BME280;45043;51.068;7.026;2024-03-08T05:35:54;100291.22;;;5.98;49.13
59272;BME280;45043;51.068;7.026;2024-03-08T05:38:55;100295.38;;;6.19;48.80
59272;BME280;45043;51.068;7.026;2024-03-08T05:41:56;100297.06;;;6.38;48.38
59272;BME280;45043;51.068;7.026;2024-03-08T05:44:58;100285.94;;;6.54;48.11
59272;BME280;45043;51.068;7.026;2024-03-08T05:47:59;100287.66;;;6.63;48.72
59272;BME280;45043;51.068;7.026;2024-03-08T05:51:00;100277.91;;;6.91;48.99
59272;BME280;45043;51.068;7.026;2024-03-08T05:54:03;100279.31;;;7.21;48.74
59272;BME280;45043;51.068;7.026;2024-03-08T05:57:06;100280.47;;;7.44;48.80
59272;BME280;45043;51.068;7.026;2024-03-08T06:00:07;100276.88;;;7.45;48.78
59272;BME280;45043;51.068;7.026;2024-03-08T06:03:12;100279.75;;;7.60;48.64
59272;BME280;45043;51.068;7.026;2024-03-08T06:06:14;100277.69;;;7.72;48.57
59272;BME280;45043;51.068;7.026;2024-03-08T06:09:15;100281.16;;;7.81;47.96
59272;BME280;45043;51.068;7.026;2024-03-08T06:12:23;100278.06;;;7.85;47.81
59272;BME280;45043;51.068;7.026;2024-03-08T06:15:29;100278.47;;;7.99;47.64
59272;BME280;45043;51.068;7.026;2024-03-08T06:18:31;100278.00;;;8.11;46.80
59272;BME280;45043;51.068;7.026;2024-03-08T06:21:32;100278.19;;;8.18;46.44
59272;BME280;45043;51.068;7.026;2024-03-08T06:24:33;100276.75;;;8.24;46.32
59272;BME280;45043;51.068;7.026;2024-03-08T06:27:36;100274.94;;;8.32;45.76
59272;BME280;45043;51.068;7.026;2024-03-08T06:30:36;100271.00;;;8.36;45.79
59272;BME280;45043;51.068;7.026;2024-03-08T06:33:37;100274.97;;;8.49;45.56
59272;BME280;45043;51.068;7.026;2024-03-08T06:36:38;100263.00;;;8.54;45.41
59272;BME280;45043;51.068;7.026;2024-03-08T06:39:38;100273.22;;;8.74;45.26
59272;BME280;45043;51.068;7.026;2024-03-08T06:42:40;100269.44;;;8.84;44.63
59272;BME280;45043;51.068;7.026;2024-03-08T06:45:42;100259.59;;;8.86;44.51
59272;BME280;45043;51.068;7.026;2024-03-08T06:48:48;100254.31;;;8.94;44.51
59272;BME280;45043;51.068;7.026;2024-03-08T06:51:52;100254.94;;;9.05;44.14
59272;BME280;45043;51.068;7.026;2024-03-08T06:54:53;100262.03;;;9.12;43.94
59272;BME280;45043;51.068;7.026;2024-03-08T06:57:53;100256.78;;;9.12;43.51
59272;BME280;45043;51.068;7.026;2024-03-08T07:00:54;100248.69;;;9.14;43.77
59272;BME280;45043;51.068;7.026;2024-03-08T07:03:59;100262.88;;;9.13;43.48
59272;BME280;45043;51.068;7.026;2024-03-08T07:07:06;100260.22;;;9.21;43.13
59272;BME280;45043;51.068;7.026;2024-03-08T07:10:09;100253.31;;;8.87;43.28
59272;BME280;45043;51.068;7.026;2024-03-08T07:13:15;100255.94;;;9.04;43.01
59272;BME280;45043;51.068;7.026;2024-03-08T07:16:17;100250.53;;;9.05;43.50
59272;BME280;45043;51.068;7.026;2024-03-08T07:19:18;100249.03;;;9.11;43.22
59272;BME280;45043;51.068;7.026;2024-03-08T07:22:19;100245.06;;;9.15;43.07
59272;BME280;45043;51.068;7.026;2024-03-08T07:25:20;100242.13;;;9.26;42.66
59272;BME280;45043;51.068;7.026;2024-03-08T07:28:25;100242.41;;;9.23;42.53
59272;BME280;45043;51.068;7.026;2024-03-08T07:31:26;100229.28;;;9.31;42.44
59272;BME280;45043;51.068;7.026;2024-03-08T07:34:27;100232.06;;;9.46;41.80
59272;BME280;45043;51.068;7.026;2024-03-08T07:37:28;100232.22;;;9.36;41.95
59272;BME280;45043;51.068;7.026;2024-03-08T07:40:28;100223.03;;;9.32;41.82
59272;BME280;45043;51.068;7.026;2024-03-08T07:43:30;100219.41;;;9.25;41.99
59272;BME280;45043;51.068;7.026;2024-03-08T07:46:30;100213.13;;;9.34;42.15
59272;BME280;45043;51.068;7.026;2024-03-08T07:49:31;100209.78;;;9.49;41.67
59272;BME280;45043;51.068;7.026;2024-03-08T07:52:31;100211.47;;;9.50;41.65
59272;BME280;45043;51.068;7.026;2024-03-08T07:55:33;100202.53;;;9.59;41.62
59272;BME280;45043;51.068;7.026;2024-03-08T07:58:35;100214.44;;;9.47;41.42
59272;BME280;45043;51.068;7.026;2024-03-08T08:01:36;100197.63;;;9.48;41.64
59272;BME280;45043;51.068;7.026;2024-03-08T08:04:37;100201.91;;;9.40;41.46
59272;BME280;45043;51.068;7.026;2024-03-08T08:07:39;100197.09;;;9.52;41.47
59272;BME280;45043;51.068;7.026;2024-03-08T08:10:44;100203.53;;;9.58;41.33
59272;BME280;45043;51.068;7.026;2024-03-08T08:13:44;100190.16;;;9.59;41.20
59272;BME280;45043;51.068;7.026;2024-03-08T08:16:45;100190.78;;;9.70;41.23
59272;BME280;45043;51.068;7.026;2024-03-08T08:19:46;100190.13;;;9.76;41.10
59272;BME280;45043;51.068;7.026;2024-03-08T08:22:46;100192.03;;;9.82;40.98
59272;BME280;45043;51.068;7.026;2024-03-08T08:25:48;100167.50;;;9.81;40.59
59272;BME280;45043;51.068;7.026;2024-03-08T08:28:50;100169.84;;;9.76;40.83
59272;BME280;45043;51.068;7.026;2024-03-08T08:31:51;100162.63;;;9.70;40.18
59272;BME280;45043;51.068;7.026;2024-03-08T08:34:52;100175.94;;;9.77;40.30
59272;BME280;45043;51.068;7.026;2024-03-08T08:37:52;100169.50;;;9.79;40.83
59272;BME280;45043;51.068;7.026;2024-03-08T08:40:53;100157.22;;;9.95;40.44
59272;BME280;45043;51.068;7.026;2024-03-08T08:43:53;100159.13;;;10.09;40.46
59272;BME280;45043;51.068;7.026;2024-03-08T08:46:55;100159.63;;;9.73;39.44
59272;BME280;45043;51.068;7.026;2024-03-08T08:49:56;100143.88;;;9.65;39.61
59272;BME280;45043;51.068;7.026;2024-03-08T08:52:57;100156.47;;;9.47;40.03
59272;BME280;45043;51.068;7.026;2024-03-08T08:55:59;100152.72;;;9.25;39.99
59272;BME280;45043;51.068;7.026;2024-03-08T08:59:02;100153.25;;;9.04;40.64
59272;BME280;45043;51.068;7.026;2024-03-08T09:02:06;100149.84;;;8.95;40.71
59272;BME280;45043;51.068;7.026;2024-03-08T09:05:07;100145.72;;;8.92;40.80
59272;BME280;45043;51.068;7.026;2024-03-08T09:08:08;100140.97;;;8.80;40.74
59272;BME280;45043;51.068;7.026;2024-03-08T09:11:10;100129.00;;;8.69;41.11
59272;BME280;45043;51.068;7.026;2024-03-08T09:14:10;100117.47;;;8.70;41.26
59272;BME280;45043;51.068;7.026;2024-03-08T09:17:12;100122.72;;;8.78;41.19
59272;BME280;45043;51.068;7.026;2024-03-08T09:20:14;100129.00;;;8.69;41.33
59272;BME280;45043;51.068;7.026;2024-03-08T09:23:15;100127.34;;;8.68;41.04
59272;BME280;45043;51.068;7.026;2024-03-08T09:26:17;100121.41;;;8.66;41.10
59272;BME280;45043;51.068;7.026;2024-03-08T09:29:18;100122.72;;;8.70;41.47
59272;BME280;45043;51.068;7.026;2024-03-08T09:32:19;100114.84;;;8.70;41.52
59272;BME280;45043;51.068;7.026;2024-03-08T09:35:20;100104.47;;;8.77;41.59
59272;BME280;45043;51.068;7.026;2024-03-08T09:38:20;100106.78;;;8.72;41.59
59272;BME280;45043;51.068;7.026;2024-03-08T09:41:21;100096.72;;;8.75;41.62
59272;BME280;45043;51.068;7.026;2024-03-08T09:44:23;100103.81;;;8.75;41.53
59272;BME280;45043;51.068;7.026;2024-03-08T09:47:25;100101.69;;;8.70;41.60
59272;BME280;45043;51.068;7.026;2024-03-08T09:50:36;100078.47;;;8.74;41.22
59272;BME280;45043;51.068;7.026;2024-03-08T09:53:39;100076.66;;;8.74;41.85
59272;BME280;45043;51.068;7.026;2024-03-08T09:56:40;100056.59;;;8.81;41.56
59272;BME280;45043;51.068;7.026;2024-03-08T09:59:45;100081.56;;;8.85;41.46
59272;BME280;45043;51.068;7.026;2024-03-08T10:02:50;100085.47;;;9.06;41.32
59272;BME280;45043;51.068;7.026;2024-03-08T10:05:56;100077.53;;;9.14;41.08
59272;BME280;45043;51.068;7.026;2024-03-08T10:09:00;100068.16;;;9.11;41.40
59272;BME280;45043;51.068;7.026;2024-03-08T10:12:01;100061.75;;;9.14;40.69
59272;BME280;45043;51.068;7.026;2024-03-08T10:15:06;100064.72;;;9.11;40.48
59272;BME280;45043;51.068;7.026;2024-03-08T10:18:08;100062.75;;;9.13;40.58
59272;BME280;45043;51.068;7.026;2024-03-08T10:21:09;100053.31;;;9.18;40.20
59272;BME280;45043;51.068;7.026;2024-03-08T10:24:17;100050.53;;;9.12;40.09
59272;BME280;45043;51.068;7.026;2024-03-08T10:27:18;100048.91;;;9.11;40.16
59272;BME280;45043;51.068;7.026;2024-03-08T10:30:18;100035.88;;;9.26;40.06
59272;BME280;45043;51.068;7.026;2024-03-08T10:33:22;100038.34;;;9.27;40.12
59272;BME280;45043;51.068;7.026;2024-03-08T10:36:23;100017.53;;;9.40;40.11
59272;BME280;45043;51.068;7.026;2024-03-08T10:39:25;100016.53;;;9.41;40.03
59272;BME280;45043;51.068;7.026;2024-03-08T10:42:28;100019.53;;;9.38;39.84
59272;BME280;45043;51.068;7.026;2024-03-08T10:48:45;100009.47;;;9.42;39.28
59272;BME280;45043;51.068;7.026;2024-03-08T10:51:49;100009.47;;;9.42;39.35
59272;BME280;45043;51.068;7.026;2024-03-08T10:54:52;100011.56;;;9.47;39.12
59272;BME280;45043;51.068;7.026;2024-03-08T10:57:55;99999.03;;;9.49;38.94
59272;BME280;45043;51.068;7.026;2024-03-08T11:00:56;100003.59;;;9.55;38.93
59272;BME280;45043;51.068;7.026;2024-03-08T11:03:57;99986.66;;;9.49;38.84
59272;BME280;45043;51.068;7.026;2024-03-08T11:07:02;99990.63;;;9.53;38.92
59272;BME280;45043;51.068;7.026;2024-03-08T11:10:20;99986.25;;;9.60;39.14
59272;BME280;45043;51.068;7.026;2024-03-08T11:16:46;99977.44;;;9.76;38.97
59272;BME280;45043;51.068;7.026;2024-03-08T11:19:48;99970.09;;;9.86;38.83
59272;BME280;45043;51.068;7.026;2024-03-08T11:22:54;99967.41;;;9.95;38.45
59272;BME280;45043;51.068;7.026;2024-03-08T11:25:55;99962.22;;;10.01;38.44
59272;BME280;45043;51.068;7.026;2024-03-08T11:32:29;99953.59;;;10.22;37.89
59272;BME280;45043;51.068;7.026;2024-03-08T11:35:30;99954.41;;;10.23;38.04
59272;BME280;45043;51.068;7.026;2024-03-08T11:38:32;99937.41;;;10.25;37.81
59272;BME280;45043;51.068;7.026;2024-03-08T11:41:34;99937.06;;;10.28;37.63
59272;BME280;45043;51.068;7.026;2024-03-08T11:44:35;99939.25;;;10.39;37.30
59272;BME280;45043;51.068;7.026;2024-03-08T11:47:37;99928.84;;;10.53;37.09
59272;BME280;45043;51.068;7.026;2024-03-08T11:50:40;99929.41;;;10.63;36.83
59272;BME280;45043;51.068;7.026;2024-03-08T11:53:41;99919.66;;;10.63;37.17
59272;BME280;45043;51.068;7.026;2024-03-08T11:56:42;99921.00;;;10.74;36.95
59272;BME280;45043;51.068;7.026;2024-03-08T11:59:49;99922.47;;;10.92;36.91
59272;BME280;45043;51.068;7.026;2024-03-08T12:03:07;99891.91;;;11.04;36.36
59272;BME280;45043;51.068;7.026;2024-03-08T12:06:11;99912.03;;;11.05;36.18
59272;BME280;45043;51.068;7.026;2024-03-08T12:09:13;99894.44;;;11.12;36.15
59272;BME280;45043;51.068;7.026;2024-03-08T12:12:15;99904.00;;;11.13;35.83
59272;BME280;45043;51.068;7.026;2024-03-08T12:15:16;99890.31;;;11.24;35.88
59272;BME280;45043;51.068;7.026;2024-03-08T12:18:18;99886.00;;;11.45;35.74
59272;BME280;45043;51.068;7.026;2024-03-08T12:21:19;99887.88;;;11.72;35.22
59272;BME280;45043;51.068;7.026;2024-03-08T12:24:24;99877.75;;;11.82;35.15
59272;BME280;45043;51.068;7.026;2024-03-08T12:27:26;99879.09;;;12.00;35.09
59272;BME280;45043;51.068;7.026;2024-03-08T12:30:31;99858.78;;;12.07;34.86
59272;BME280;45043;51.068;7.026;2024-03-08T12:33:34;99867.19;;;12.17;34.45
59272;BME280;45043;51.068;7.026;2024-03-08T12:36:35;99868.72;;;12.33;34.50
59272;BME280;45043;51.068;7.026;2024-03-08T12:39:40;99852.16;;;12.66;33.97
59272;BME280;45043;51.068;7.026;2024-03-08T12:42:43;99848.94;;;12.77;33.66
59272;BME280;45043;51.068;7.026;2024-03-08T12:45:46;99842.47;;;12.99;33.38
59272;BME280;45043;51.068;7.026;2024-03-08T12:48:48;99855.88;;;12.85;32.97
59272;BME280;45043;51.068;7.026;2024-03-08T12:51:49;99842.00;;;12.83;33.11
59272;BME280;45043;51.068;7.026;2024-03-08T12:54:50;99826.13;;;12.83;33.21
59272;BME280;45043;51.068;7.026;2024-03-08T12:57:50;99821.28;;;12.99;33.04
59272;BME280;45043;51.068;7.026;2024-03-08T13:00:54;99832.09;;;13.24;32.90
59272;BME280;45043;51.068;7.026;2024-03-08T13:03:55;99812.94;;;13.29;32.45
59272;BME280;45043;51.068;7.026;2024-03-08T13:06:56;99808.66;;;13.28;32.76
59272;BME280;45043;51.068;7.026;2024-03-08T13:09:57;99811.09;;;13.43;32.31
59272;BME280;45043;51.068;7.026;2024-03-08T13:13:00;99806.19;;;13.73;31.77
59272;BME280;45043;51.068;7.026;2024-03-08T13:16:02;99796.31;;;13.93;31.54
59272;BME280;45043;51.068;7.026;2024-03-08T13:19:03;99788.31;;;14.13;31.44
59272;BME280;45043;51.068;7.026;2024-03-08T13:22:05;99795.66;;;14.18;31.37
59272;BME280;45043;51.068;7.026;2024-03-08T13:25:07;99784.00;;;14.12;31.96
59272;BME280;45043;51.068;7.026;2024-03-08T13:28:13;99785.97;;;14.37;31.35
59272;BME280;45043;51.068;7.026;2024-03-08T13:31:15;99763.97;;;14.61;31.16
59272;BME280;45043;51.068;7.026;2024-03-08T13:34:16;99780.09;;;14.66;30.64
59272;BME280;45043;51.068;7.026;2024-03-08T13:37:18;99778.88;;;14.69;30.75
59272;BME280;45043;51.068;7.026;2024-03-08T13:40:20;99761.22;;;14.81;30.28
59272;BME280;45043;51.068;7.026;2024-03-08T13:43:21;99761.59;;;14.85;29.94
59272;BME280;45043;51.068;7.026;2024-03-08T13:46:22;99749.00;;;15.24;29.80
59272;BME280;45043;51.068;7.026;2024-03-08T13:49:25;99746.81;;;15.20;29.47
59272;BME280;45043;51.068;7.026;2024-03-08T13:52:26;99734.50;;;15.19;29.58
59272;BME280;45043;51.068;7.026;2024-03-08T13:55:30;99735.88;;;15.29;28.87
59272;BME280;45043;51.068;7.026;2024-03-08T13:58:31;99731.84;;;15.63;29.13
59272;BME280;45043;51.068;7.026;2024-03-08T14:01:31;99732.91;;;15.80;28.84
59272;BME280;45043;51.068;7.026;2024-03-08T14:04:33;99698.22;;;15.87;28.64
59272;BME280;45043;51.068;7.026;2024-03-08T14:07:35;99709.69;;;16.06;28.27
59272;BME280;45043;51.068;7.026;2024-03-08T14:10:36;99711.59;;;15.99;28.52
59272;BME280;45043;51.068;7.026;2024-03-08T14:13:42;99703.34;;;16.18;28.29
59272;BME280;45043;51.068;7.026;2024-03-08T14:16:45;99695.81;;;16.15;28.20
59272;BME280;45043;51.068;7.026;2024-03-08T14:19:46;99703.59;;;16.17;28.33
59272;BME280;45043;51.068;7.026;2024-03-08T14:22:46;99687.88;;;16.39;27.95
59272;BME280;45043;51.068;7.026;2024-03-08T14:25:49;99680.44;;;16.71;27.55
59272;BME280;45043;51.068;7.026;2024-03-08T14:28:52;99683.38;;;16.93;27.10
59272;BME280;45043;51.068;7.026;2024-03-08T14:31:55;99678.88;;;17.17;26.68
59272;BME280;45043;51.068;7.026;2024-03-08T14:35:00;99678.63;;;17.30;26.90
59272;BME280;45043;51.068;7.026;2024-03-08T14:38:01;99671.41;;;17.43;26.71
59272;BME280;45043;51.068;7.026;2024-03-08T14:41:02;99662.91;;;17.57;26.74
59272;BME280;45043;51.068;7.026;2024-03-08T14:44:04;99656.72;;;17.80;26.30
59272;BME280;45043;51.068;7.026;2024-03-08T14:47:05;99661.56;;;17.83;26.33
59272;BME280;45043;51.068;7.026;2024-03-08T14:50:08;99654.44;;;18.01;25.99
59272;BME280;45043;51.068;7.026;2024-03-08T14:53:09;99643.31;;;18.21;25.75
59272;BME280;45043;51.068;7.026;2024-03-08T14:56:10;99636.78;;;18.45;25.23
59272;BME280;45043;51.068;7.026;2024-03-08T14:59:17;99627.31;;;18.71;25.04
59272;BME280;45043;51.068;7.026;2024-03-08T15:02:20;99627.69;;;18.29;25.96
59272;BME280;45043;51.068;7.026;2024-03-08T15:05:22;99624.44;;;18.61;24.92
59272;BME280;45043;51.068;7.026;2024-03-08T15:08:28;99611.84;;;18.73;25.04
59272;BME280;45043;51.068;7.026;2024-03-08T15:11:29;99609.91;;;18.69;24.96
59272;BME280;45043;51.068;7.026;2024-03-08T15:14:30;99600.31;;;18.90;24.79
59272;BME280;45043;51.068;7.026;2024-03-08T15:17:34;99601.59;;;18.87;24.64
59272;BME280;45043;51.068;7.026;2024-03-08T15:20:36;99598.53;;;18.95;24.75
59272;BME280;45043;51.068;7.026;2024-03-08T15:23:36;99598.53;;;19.39;23.97
59272;BME280;45043;51.068;7.026;2024-03-08T15:26:37;99590.47;;;21.27;21.78
59272;BME280;45043;51.068;7.026;2024-03-08T15:29:38;99578.91;;;23.41;19.94
59272;BME280;45043;51.068;7.026;2024-03-08T15:32:43;99575.19;;;24.50;18.98
59272;BME280;45043;51.068;7.026;2024-03-08T15:35:44;99572.78;;;25.25;18.69
59272;BME280;45043;51.068;7.026;2024-03-08T15:38:50;99569.44;;;27.02;17.54
59272;BME280;45043;51.068;7.026;2024-03-08T15:41:51;99569.06;;;28.71;16.07
59272;BME280;45043;51.068;7.026;2024-03-08T15:44:51;99563.50;;;28.85;15.94
59272;BME280;45043;51.068;7.026;2024-03-08T15:47:53;99566.47;;;28.35;16.02
59272;BME280;45043;51.068;7.026;2024-03-08T15:50:54;99574.59;;;28.35;15.54
59272;BME280;45043;51.068;7.026;2024-03-08T15:53:55;99572.38;;;28.14;15.62
59272;BME280;45043;51.068;7.026;2024-03-08T15:56:56;99571.47;;;28.73;15.26
59272;BME280;45043;51.068;7.026;2024-03-08T15:59:58;99561.91;;;28.84;15.11
59272;BME280;45043;51.068;7.026;2024-03-08T16:03:05;99562.97;;;28.65;14.75
59272;BME280;45043;51.068;7.026;2024-03-08T16:06:07;99567.78;;;28.15;15.55
59272;BME280;45043;51.068;7.026;2024-03-08T16:09:08;99554.47;;;27.68;15.68
59272;BME280;45043;51.068;7.026;2024-03-08T16:12:15;99558.19;;;27.22;15.62
59272;BME280;45043;51.068;7.026;2024-03-08T16:15:16;99551.38;;;26.97;16.02
59272;BME280;45043;51.068;7.026;2024-03-08T16:18:18;99553.56;;;27.09;15.63